Map

Track Data

SID SEASON NUMBER BASIN SUBBASIN NAME ISO_TIME NATURE LAT LON WMO_WIND WMO_PRES WMO_AGENCY TRACK_TYPE DIST2LAND LANDFALL IFLAG USA_AGENCY USA_ATCF_ID USA_LAT USA_LON USA_RECORD USA_STATUS USA_WIND USA_PRES USA_SSHS USA_R34_NE USA_R34_SE USA_R34_SW USA_R34_NW USA_R50_NE USA_R50_SE USA_R50_SW USA_R50_NW USA_R64_NE USA_R64_SE USA_R64_SW USA_R64_NW USA_POCI USA_ROCI USA_RMW USA_EYE TOKYO_LAT TOKYO_LON TOKYO_GRADE TOKYO_WIND TOKYO_PRES TOKYO_R50_DIR TOKYO_R50_LONG TOKYO_R50_SHORT TOKYO_R30_DIR TOKYO_R30_LONG TOKYO_R30_SHORT TOKYO_LAND CMA_LAT CMA_LON CMA_CAT CMA_WIND CMA_PRES HKO_LAT HKO_LON HKO_CAT HKO_WIND HKO_PRES NEWDELHI_LAT NEWDELHI_LON NEWDELHI_GRADE NEWDELHI_WIND NEWDELHI_PRES NEWDELHI_CI NEWDELHI_DP NEWDELHI_POCI REUNION_LAT REUNION_LON REUNION_TYPE REUNION_WIND REUNION_PRES REUNION_TNUM REUNION_CI REUNION_RMW REUNION_R34_NE REUNION_R34_SE REUNION_R34_SW REUNION_R34_NW REUNION_R50_NE REUNION_R50_SE REUNION_R50_SW REUNION_R50_NW REUNION_R64_NE REUNION_R64_SE REUNION_R64_SW REUNION_R64_NW BOM_LAT BOM_LON BOM_TYPE BOM_WIND BOM_PRES BOM_TNUM BOM_CI BOM_RMW BOM_R34_NE BOM_R34_SE BOM_R34_SW BOM_R34_NW BOM_R50_NE BOM_R50_SE BOM_R50_SW BOM_R50_NW BOM_R64_NE BOM_R64_SE BOM_R64_SW BOM_R64_NW BOM_ROCI BOM_POCI BOM_EYE BOM_POS_METHOD BOM_PRES_METHOD NADI_LAT NADI_LON NADI_CAT NADI_WIND NADI_PRES WELLINGTON_LAT WELLINGTON_LON WELLINGTON_WIND WELLINGTON_PRES DS824_LAT DS824_LON DS824_STAGE DS824_WIND DS824_PRES TD9636_LAT TD9636_LON TD9636_STAGE TD9636_WIND TD9636_PRES TD9635_LAT TD9635_LON TD9635_WIND TD9635_PRES TD9635_ROCI NEUMANN_LAT NEUMANN_LON NEUMANN_CLASS NEUMANN_WIND NEUMANN_PRES MLC_LAT MLC_LON MLC_CLASS MLC_WIND MLC_PRES USA_GUST BOM_GUST BOM_GUST_PER REUNION_GUST REUNION_GUST_PER USA_SEAHGT USA_SEARAD_NE USA_SEARAD_SE USA_SEARAD_SW USA_SEARAD_NW STORM_SPEED STORM_DIR
1994192N05139 1994 46 WP MM WALT 1994-07-11 00:00:00 NR 5.40000 138.600 main 756 747 O_____________ jtwc_wp WP101994 5.40000 138.600 15 -1 10 287
1994192N05139 1994 46 WP MM WALT 1994-07-11 03:00:00 NR 5.55008 138.100 main 757 747 P_____________ WP101994 5.55008 138.100 15 -1 10 287
1994192N05139 1994 46 WP MM WALT 1994-07-11 06:00:00 NR 5.70000 137.600 main 750 744 O_____________ jtwc_wp WP101994 5.70000 137.600 15 -1 10 287
1994192N05139 1994 46 WP MM WALT 1994-07-11 09:00:00 NR 5.84996 137.100 main 747 747 P_____________ WP101994 5.84996 137.100 15 -1 10 287
1994192N05139 1994 46 WP MM WALT 1994-07-11 12:00:00 NR 6.00000 136.600 main 759 756 O_____________ jtwc_wp WP101994 6.00000 136.600 15 -1 10 287
1994192N05139 1994 46 WP MM WALT 1994-07-11 15:00:00 NR 6.14995 136.100 main 764 764 P_____________ WP101994 6.14995 136.100 17 -1 10 287
1994192N05139 1994 46 WP MM WALT 1994-07-11 18:00:00 NR 6.30000 135.600 main 784 784 O_____________ jtwc_wp WP101994 6.30000 135.600 20 -1 10 286
1994192N05139 1994 46 WP MM WALT 1994-07-11 21:00:00 NR 6.44245 135.100 main 796 796 P_____________ WP101994 6.44245 135.100 20 -1 10 287
1994192N05139 1994 46 WP MM WALT 1994-07-12 00:00:00 NR 6.60000 134.600 main 799 768 O_____________ jtwc_wp WP101994 6.60000 134.600 20 -1 11 289
1994192N05139 1994 46 WP MM WALT 1994-07-12 03:00:00 NR 6.79247 134.093 main 768 741 P_____________ WP101994 6.79247 134.093 20 -1 11 292
1994192N05139 1994 46 WP MM WALT 1994-07-12 06:00:00 NR 7.00000 133.600 main 741 717 O_____________ jtwc_wp WP101994 7.00000 133.600 20 -1 10 293
1994192N05139 1994 46 WP MM WALT 1994-07-12 09:00:00 NR 7.19243 133.142 main 717 673 P_____________ WP101994 7.19243 133.142 20 -1 10 294
1994192N05139 1994 46 WP MM WALT 1994-07-12 12:00:00 NR 7.40000 132.700 main 673 628 O_____________ jtwc_wp WP101994 7.40000 132.700 20 -1 10 297
1994192N05139 1994 46 WP MM WALT 1994-07-12 15:00:00 NR 7.64245 132.250 main 617 573 P_____________ WP101994 7.64245 132.250 20 -1 10 299
1994192N05139 1994 46 WP MM WALT 1994-07-12 18:00:00 NR 7.90000 131.800 main 573 531 O_____________ jtwc_wp WP101994 7.90000 131.800 20 -1 10 299
1994192N05139 1994 46 WP MM WALT 1994-07-12 21:00:00 NR 8.15000 131.335 main 520 480 P_____________ WP101994 8.15000 131.335 20 -1 10 299
1994192N05139 1994 46 WP MM WALT 1994-07-13 00:00:00 NR 8.40000 130.900 main 480 452 O_____________ jtwc_wp WP101994 8.40000 130.900 20 -1 9 302
1994192N05139 1994 46 WP MM WALT 1994-07-13 03:00:00 NR 8.64992 130.535 main 441 418 P_____________ WP101994 8.64992 130.535 20 -1 9 306
1994192N05139 1994 46 WP MM WALT 1994-07-13 06:00:00 NR 8.90000 130.200 main 418 395 O_____________ jtwc_wp WP101994 8.90000 130.200 20 -1 9 306
1994192N05139 1994 46 WP MM WALT 1994-07-13 09:00:00 NR 9.14999 129.842 main 384 358 P_____________ WP101994 9.14999 129.842 20 -1 9 306
1994192N05139 1994 46 WP MM WALT 1994-07-13 12:00:00 NR 9.40000 129.500 main 358 330 O_____________ jtwc_wp WP101994 9.40000 129.500 20 -1 8 308
1994192N05139 1994 46 WP MM WALT 1994-07-13 15:00:00 NR 9.64995 129.192 main 330 306 P_____________ WP101994 9.64995 129.192 20 -1 8 310
1994192N05139 1994 46 WP MM WALT 1994-07-13 18:00:00 NR 9.90000 128.900 main 306 281 O_____________ jtwc_wp WP101994 9.90000 128.900 20 -1 8 311
1994192N05139 1994 46 WP MM WALT 1994-07-13 21:00:00 NR 10.1500 128.600 main 281 281 P_____________ WP101994 10.1500 128.600 20 -1 8 350
1994192N05139 1994 46 WP MM WALT 1994-07-14 00:00:00 TS 10.7000 128.757 1004 tokyo main 329 294 OOOO__________ jtwc_wp WP101994 10.4000 128.300 20 -1 11.0000 129.000 2 1004 0 0 0 11.0000 129.000 1 29 1004 11.3000 130.100 TD 30 1002 9 352
1994192N05139 1994 46 WP MM WALT 1994-07-14 03:00:00 TS 11.0171 128.468 main 294 253 PPPP__________ WP101994 10.6425 128.000 20 -1 11.1951 128.512 2 1004 0 0 11.1951 128.512 1 29 1004 11.4105 129.315 TD 30 1002 10 312
1994192N05139 1994 46 WP MM WALT 1994-07-14 06:00:00 TS 11.3385 128.046 1004 tokyo main 242 211 OOOO__________ jtwc_wp WP101994 10.9000 127.700 20 -1 11.5000 128.000 2 1004 0 0 0 11.5000 128.000 1 29 1004 11.6000 128.600 TD 30 1002 12 311
1994192N05139 1994 46 WP MM WALT 1994-07-14 09:00:00 TS 11.7669 127.583 main 215 184 PPPP__________ WP101994 11.1925 127.400 22 -1 11.9776 127.463 2 1004 0 0 11.9776 127.463 1 29 1004 11.9198 128.005 TD 30 1002 12 314
1994192N05139 1994 46 WP MM WALT 1994-07-14 12:00:00 TS 12.2000 127.150 1004 tokyo main 184 145 OOOO__________ jtwc_wp WP101994 11.5000 127.100 25 -1 12.5000 127.000 2 1004 0 0 0 12.5000 127.000 1 29 1004 12.3000 127.500 TD 30 1002 11 317
1994192N05139 1994 46 WP MM WALT 1994-07-14 15:00:00 TS 12.5755 126.813 main 148 133 PPPP__________ WP101994 11.8000 126.800 25 -1 12.9223 126.712 2 1004 0 0 12.9223 126.712 1 29 1004 12.6574 127.027 TD 30 1002 10 320
1994192N05139 1994 46 WP MM WALT 1994-07-14 18:00:00 TS 12.9250 126.525 1004 tokyo main 133 132 OOOO__________ jtwc_wp WP101994 12.1000 126.500 25 -1 13.3000 126.500 2 1004 0 0 0 13.3000 126.500 1 29 1004 13.0000 126.600 TD 30 1002 9 320
1994192N05139 1994 46 WP MM WALT 1994-07-14 21:00:00 TS 13.2650 126.223 main 140 140 PPPP__________ WP101994 12.4000 126.200 25 -1 13.6725 126.250 2 1004 0 0 13.6725 126.250 1 29 1004 13.3149 126.192 TD 30 1002 9 318
1994192N05139 1994 46 WP MM WALT 1994-07-15 00:00:00 TS 13.5750 125.925 1004 tokyo main 144 129 OOOO__________ jtwc_wp WP101994 12.7000 125.900 25 -1 14.0000 126.000 2 1004 0 0 0 14.0000 126.000 1 29 1004 13.6000 125.800 TD 30 1002 8 316
1994192N05139 1994 46 WP MM WALT 1994-07-15 03:00:00 TS 13.8600 125.625 main 129 99 PPPP__________ WP101994 13.0075 125.592 25 -1 14.2800 125.750 2 1004 0 0 14.2875 125.750 1 29 1004 13.8649 125.407 TD 30 1002 8 312
1994192N05139 1994 46 WP MM WALT 1994-07-15 06:00:00 TS 14.1000 125.325 1004 tokyo main 99 78 OOOO__________ jtwc_wp WP101994 13.3000 125.300 25 -1 14.5000 125.500 2 1004 0 0 0 14.5000 125.500 1 29 1004 14.1000 125.000 TD 30 1002 7 306
1994192N05139 1994 46 WP MM WALT 1994-07-15 09:00:00 TS 14.2881 125.010 main 78 62 PPPP__________ WP101994 13.5425 125.020 27 -1 14.6800 125.250 2 1004 0 0 14.6225 125.250 1 29 1004 14.3076 124.520 TD 30 1002 7 301
1994192N05139 1994 46 WP MM WALT 1994-07-15 12:00:00 TS 14.4500 124.725 1004 tokyo main 70 62 OOOO__________ jtwc_wp WP101994 13.8000 124.800 30 -1 14.8000 125.000 2 1004 0 0 0 14.7000 125.000 1 29 1004 14.5000 124.100 TD 30 1002 6 303
1994192N05139 1994 46 WP MM WALT 1994-07-15 15:00:00 TS 14.6306 124.461 main 70 68 PPPP__________ WP101994 14.1499 124.633 30 -1 14.8575 124.712 2 1003 0 0 14.8001 124.705 1 29 1003 14.7149 123.795 TD 30 1002 5 312
1994192N05139 1994 46 WP MM WALT 1994-07-15 18:00:00 TS 14.8000 124.325 1002 tokyo main 89 89 OOOO__________ jtwc_wp WP101994 14.5000 124.600 30 -1 14.9000 124.500 2 1002 0 0 0 14.9000 124.500 1 29 1002 14.9000 123.700 TD 30 1002 3 346
1994192N05139 1994 46 WP MM WALT 1994-07-15 21:00:00 TS 14.9525 124.384 main 112 112 PPPP__________ WP101994 14.7875 124.747 32 -1 14.9924 124.425 2 1003 0 0 14.9999 124.482 1 29 1002 15.0301 123.882 TD 30 1002 4 41
1994192N05139 1994 46 WP MM WALT 1994-07-16 00:00:00 TS 15.0750 124.575 1004 tokyo main 127 127 OOOO__________ jtwc_wp WP101994 15.0000 125.000 35 0 15.1000 124.500 2 1004 0 0 0 15.1000 124.600 1 29 1002 15.1000 124.200 TD 30 1002 5 62
1994192N05139 1994 46 WP MM WALT 1994-07-16 03:00:00 TS 15.1669 124.803 main 144 144 PPPP__________ WP101994 15.1225 125.243 37 0 15.2151 124.735 2 1003 0 0 15.2151 124.792 1 29 1002 15.1149 124.443 TD 32 1001 5 72
1994192N05139 1994 46 WP MM WALT 1994-07-16 06:00:00 TS 15.2250 125.050 1002 tokyo main 159 159 OOOO__________ jtwc_wp WP101994 15.2000 125.500 40 0 15.3000 125.000 2 1002 0 0 0 15.3000 125.000 1 29 1002 15.1000 124.700 TS 35 1000 4 78
1994192N05139 1994 46 WP MM WALT 1994-07-16 09:00:00 TS 15.2556 125.232 main 174 174 PPPP__________ WP101994 15.2999 125.743 42 0 15.3149 125.115 2 1001 0 0 15.3149 125.085 1 33 1000 15.0925 124.985 TS 35 1000 4 82
1994192N05139 1994 46 WP MM WALT 1994-07-16 12:00:00 TS 15.2750 125.425 35 1000 tokyo main 187 187 OOOO__________ jtwc_wp WP101994 15.4000 126.000 45 0 15.3000 125.200 3 35 1000 0 9 150 150 0 15.3000 125.200 2 38 998 15.1000 125.300 TS 35 1000 4 84
1994192N05139 1994 46 WP MM WALT 1994-07-16 15:00:00 TS 15.2973 125.651 main 209 209 PPPP__________ WP101994 15.4925 126.293 47 0 15.2846 125.260 3 35 998 0 9 150 150 15.2849 125.433 2 38 996 15.1274 125.620 TS 37 997 5 82
1994192N05139 1994 46 WP MM WALT 1994-07-16 18:00:00 TS 15.3500 125.975 35 996 tokyo main 240 240 OOOO__________ jtwc_wp WP101994 15.6000 126.600 50 0 15.3000 125.500 3 35 996 0 9 150 150 0 15.3000 125.800 2 38 995 15.2000 126.000 TS 40 995 8 80
1994192N05139 1994 46 WP MM WALT 1994-07-16 21:00:00 TS 15.4395 126.458 main 281 281 PPPP__________ WP101994 15.7425 126.900 52 0 15.3480 126.140 3 40 993 0 9 175 175 15.3476 126.313 2 43 992 15.3200 126.478 TS 42 992 10 76
1994192N05139 1994 46 WP MM WALT 1994-07-17 00:00:00 TS 15.6000 127.000 45 990 tokyo main 338 338 OOOO__________ jtwc_wp WP101994 15.9000 127.200 55 0 15.5000 126.900 3 45 990 0 9 200 200 0 15.5000 126.900 3 48 990 15.5000 127.000 TS 45 990 11 67
1994192N05139 1994 46 WP MM WALT 1994-07-17 03:00:00 TS 15.8618 127.490 main 401 401 PPPP__________ WP101994 16.0424 127.485 57 0 15.8348 127.495 3 47 987 0 9 205 205 15.8350 127.472 3 48 987 15.7349 127.507 TS 45 990 11 59
1994192N05139 1994 46 WP MM WALT 1994-07-17 06:00:00 TS 16.1500 127.950 50 985 tokyo main 464 464 OOOO__________ jtwc_wp WP101994 16.2000 127.800 60 0 16.2000 128.000 4 50 985 0 9 210 210 0 16.2000 128.000 3 48 985 16.0000 128.000 TS 45 990 10 59
1994192N05139 1994 46 WP MM WALT 1994-07-17 09:00:00 TS 16.3661 128.372 main 512 512 PPPP__________ WP101994 16.3775 128.185 62 0 16.4148 128.423 4 52 982 0 9 210 210 16.4297 128.415 3 48 985 16.2424 128.465 TS 47 987 9 62
1994192N05139 1994 46 WP MM WALT 1994-07-17 12:00:00 TS 16.5750 128.775 55 980 tokyo main 560 560 OOOO__________ jtwc_wp WP101994 16.6000 128.600 65 1 16.6000 128.800 4 55 980 9 40 40 9 210 210 0 16.6000 128.800 3 48 985 16.5000 128.900 STS 50 985 9 61
1994192N05139 1994 46 WP MM WALT 1994-07-17 15:00:00 TS 16.8025 129.201 main 608 608 PPPP__________ WP101994 16.8774 129.000 67 1 16.8350 129.223 4 57 977 9 40 40 9 210 210 16.7276 129.265 3 53 982 16.7699 129.315 STS 52 982 9 58
1994192N05139 1994 46 WP MM WALT 1994-07-17 18:00:00 TS 17.0750 129.600 60 975 tokyo main 662 662 OOOO__________ jtwc_wp WP101994 17.2000 129.400 70 1 17.1000 129.600 4 60 975 9 40 40 9 210 210 0 16.9000 129.700 3 58 980 17.1000 129.700 STS 55 980 9 49
1994192N05139 1994 46 WP MM WALT 1994-07-17 21:00:00 TS 17.4073 129.929 main 707 707 PPPP__________ WP101994 17.5424 129.800 72 1 17.3622 129.843 4 62 972 9 45 45 9 225 225 17.1898 130.008 3 58 977 17.5349 130.065 STS 57 977 10 41
1994192N05139 1994 46 WP MM WALT 1994-07-18 00:00:00 TS 17.8000 130.250 65 970 tokyo main 767 767 OOOO__________ jtwc_wp WP101994 17.9000 130.200 75 1 17.7000 130.100 5 65 970 9 50 50 9 240 240 0 17.6000 130.300 3 58 975 18.0000 130.400 STS 60 975 11 40
1994192N05139 1994 46 WP MM WALT 1994-07-18 03:00:00 TS 18.2408 130.658 main 827 827 PPPP__________ WP101994 18.2425 130.623 77 1 18.1778 130.564 5 67 965 9 60 60 9 240 240 18.1352 130.729 3 63 972 18.4074 130.715 STS 62 972 12 39
1994192N05139 1994 46 WP MM WALT 1994-07-18 06:00:00 TS 18.7000 131.025 70 960 tokyo main 885 885 OOOO__________ jtwc_wp WP101994 18.6000 131.000 80 1 18.7000 131.000 5 70 960 9 70 70 9 240 240 0 18.7000 131.100 4 68 970 18.8000 131.000 T 65 970 11 31
1994192N05139 1994 46 WP MM WALT 1994-07-18 09:00:00 TS 19.1473 131.237 main 929 929 PPPP__________ WP101994 18.9999 131.273 85 2 19.1873 131.188 5 72 957 9 75 75 9 250 250 19.1873 131.231 4 68 967 19.2149 131.258 T 67 967 9 23
1994192N05139 1994 46 WP MM WALT 1994-07-18 12:00:00 TS 19.5500 131.400 75 955 tokyo main 966 964 OOOO__________ jtwc_wp WP101994 19.4000 131.500 90 2 19.6000 131.300 5 75 955 9 80 80 9 260 260 0 19.6000 131.300 4 68 965 19.6000 131.500 T 70 965 8 26
1994192N05139 1994 46 WP MM WALT 1994-07-18 15:00:00 TS 19.8556 131.607 main 991 991 PPPP__________ WP101994 19.7574 131.743 95 2 19.8499 131.470 5 77 952 9 85 85 9 260 260 19.9074 131.463 4 72 962 19.9075 131.750 T 72 962 7 35
1994192N05139 1994 46 WP MM WALT 1994-07-18 18:00:00 TS 20.1500 131.850 80 950 tokyo main 1027 1027 OOOO__________ jtwc_wp WP101994 20.1000 132.000 100 3 20.1000 131.700 5 80 950 9 90 90 9 260 260 0 20.2000 131.700 4 77 960 20.2000 132.000 T 75 960 8 37
1994192N05139 1994 46 WP MM WALT 1994-07-18 21:00:00 TS 20.5263 132.149 main 1053 1053 PPPP__________ WP101994 20.4425 132.293 105 3 20.5276 132.027 5 82 945 9 95 95 9 265 265 20.5925 132.027 4 77 957 20.5425 132.250 T 77 957 10 37
1994192N05139 1994 46 WP MM WALT 1994-07-19 00:00:00 TS 20.9250 132.475 85 940 tokyo main 1103 1101 OOOO__________ jtwc_wp WP101994 20.8000 132.600 110 3 21.0000 132.400 5 85 940 9 100 100 9 270 270 0 21.0000 132.400 4 77 955 20.9000 132.500 T 80 955 10 37
1994192N05139 1994 46 WP MM WALT 1994-07-19 03:00:00 TS 21.3018 132.782 main 1103 1065 PPPP__________ WP101994 21.1924 132.893 120 4 21.4149 132.750 5 87 935 9 105 105 9 270 270 21.3574 132.750 4 87 947 21.2424 132.735 T 90 942 10 38
1994192N05139 1994 46 WP MM WALT 1994-07-19 06:00:00 TS 21.6750 133.100 90 930 tokyo main 1065 1040 OOOO__________ jtwc_wp WP101994 21.6000 133.200 130 4 21.8000 133.100 5 90 930 9 110 110 9 270 270 0 21.7000 133.100 5 97 940 21.6000 133.000 SuperT 100 930 10 39
1994192N05139 1994 46 WP MM WALT 1994-07-19 09:00:00 TS 22.0518 133.439 main 1029 1005 PPPP__________ WP101994 22.0074 133.535 130 4 22.1574 133.450 5 92 927 9 110 110 9 285 255 22.0424 133.443 5 101 935 22.0000 133.328 SuperT 102 925 10 41
1994192N05139 1994 46 WP MM WALT 1994-07-19 12:00:00 TS 22.4250 133.800 95 925 tokyo main 1008 975 OOOO__________ jtwc_wp WP101994 22.4000 133.900 130 4 22.5000 133.800 5 95 925 9 110 110 3 300 240 0 22.4000 133.800 6 106 930 22.4000 133.700 SuperT 105 920 10 42
1994192N05139 1994 46 WP MM WALT 1994-07-19 15:00:00 TS 22.7930 134.169 main 979 958 PPPP__________ WP101994 22.7575 134.293 130 4 22.8498 134.128 5 97 920 9 110 110 3 300 240 22.8073 134.178 6 106 930 22.7573 134.078 SuperT 102 925 10 45
1994192N05139 1994 46 WP MM WALT 1994-07-19 18:00:00 TS 23.1500 134.575 100 915 tokyo main 952 938 OOOO__________ jtwc_wp WP101994 23.1000 134.700 130 4 23.2000 134.500 5 100 915 9 110 110 3 300 240 0 23.2000 134.600 6 106 930 23.1000 134.500 SuperT 100 930 11 49
1994192N05139 1994 46 WP MM WALT 1994-07-19 21:00:00 TS 23.4762 135.037 main 938 927 PPPP__________ WP101994 23.4423 135.093 130 4 23.5350 134.978 5 100 915 9 110 110 3 300 240 23.4850 135.093 6 106 930 23.4425 134.985 SuperT 100 930 11 52
1994192N05139 1994 46 WP MM WALT 1994-07-20 00:00:00 TS 23.8250 135.525 100 915 tokyo main 932 915 OOOO__________ jtwc_wp WP101994 23.8000 135.500 130 4 23.9000 135.500 5 100 915 9 110 110 3 300 240 0 23.8000 135.600 6 106 930 23.8000 135.500 SuperT 100 930 12 49
1994192N05139 1994 46 WP MM WALT 1994-07-20 03:00:00 TS 24.2606 136.009 main 911 894 PPPP__________ WP101994 24.1926 135.958 127 4 24.3574 136.007 5 100 915 9 110 110 3 285 255 24.2998 136.057 6 106 930 24.1925 136.015 SuperT 97 935 12 45
1994192N05139 1994 46 WP MM WALT 1994-07-20 06:00:00 TS 24.7000 136.475 100 915 tokyo main 899 888 OOOO__________ jtwc_wp WP101994 24.6000 136.400 125 4 24.8000 136.500 5 100 915 9 110 110 9 270 270 0 24.8000 136.500 6 106 930 24.6000 136.500 ST 95 940 11 46
1994192N05139 1994 46 WP MM WALT 1994-07-20 09:00:00 TS 25.0499 136.916 main 894 883 PPPP__________ WP101994 24.9999 136.780 122 4 25.1000 136.981 5 100 917 9 110 110 9 270 270 25.1075 136.973 6 106 930 24.9924 136.930 ST 92 942 10 47
1994192N05139 1994 46 WP MM WALT 1994-07-20 12:00:00 TS 25.4000 137.300 100 920 tokyo main 883 865 OOOO__________ jtwc_wp WP101994 25.4000 137.100 120 4 25.4000 137.400 5 100 920 9 110 110 9 270 270 0 25.4000 137.400 6 106 930 25.4000 137.300 ST 90 945 10 40
1994192N05139 1994 46 WP MM WALT 1994-07-20 15:00:00 TS 25.8337 137.634 main 865 817 PPPP__________ WP101994 25.8074 137.380 115 4 25.8349 137.760 5 97 925 9 105 105 9 270 270 25.8349 137.760 6 101 932 25.8574 137.637 ST 87 947 10 31
1994192N05139 1994 46 WP MM WALT 1994-07-20 18:00:00 TS 26.2750 137.875 95 930 tokyo main 817 787 OOOO__________ jtwc_wp WP101994 26.2000 137.600 110 3 26.3000 138.000 5 95 930 9 100 100 9 270 270 0 26.3000 138.000 5 97 935 26.3000 137.900 ST 85 950 9 23
1994192N05139 1994 46 WP MM WALT 1994-07-20 21:00:00 TS 26.6612 138.020 main 776 747 PPPP__________ WP101994 26.5575 137.795 107 3 26.7149 138.095 5 90 937 9 90 90 9 270 270 26.7149 138.095 5 87 945 26.6574 138.095 ST 82 952 8 13
1994192N05139 1994 46 WP MM WALT 1994-07-21 00:00:00 TS 27.0250 138.075 85 945 tokyo main 747 704 OOOO__________ jtwc_wp WP101994 26.9000 137.900 105 3 27.1000 138.100 5 85 945 9 80 80 9 270 270 0 27.1000 138.100 4 77 955 27.0000 138.200 T 80 955 7 5
1994192N05139 1994 46 WP MM WALT 1994-07-21 03:00:00 TS 27.3894 138.089 main 704 672 PPPP__________ WP101994 27.2500 137.895 100 3 27.4500 138.115 5 80 950 9 80 80 9 270 270 27.4575 138.115 4 77 957 27.4000 138.230 T 80 955 7 359
1994192N05139 1994 46 WP MM WALT 1994-07-21 06:00:00 TS 27.7500 138.050 75 955 tokyo main 662 627 OOOO__________ jtwc_wp WP101994 27.6000 137.800 95 2 27.8000 138.100 5 75 955 9 80 80 9 270 270 0 27.8000 138.100 4 77 960 27.8000 138.200 T 80 955 7 353
1994192N05139 1994 46 WP MM WALT 1994-07-21 09:00:00 TS 28.1162 138.001 main 627 582 PPPP__________ WP101994 27.9575 137.673 92 2 28.2000 138.080 5 72 957 9 75 75 9 255 255 28.1500 138.072 4 72 965 28.1574 138.180 T 77 957 7 350
1994192N05139 1994 46 WP MM WALT 1994-07-21 12:00:00 TS 28.4750 137.900 70 960 tokyo main 582 547 OOOO__________ jtwc_wp WP101994 28.3000 137.500 90 2 28.6000 138.000 5 70 960 9 70 70 9 240 240 0 28.5000 138.000 4 68 970 28.5000 138.100 T 75 960 8 345
1994192N05139 1994 46 WP MM WALT 1994-07-21 15:00:00 TS 28.8478 137.774 main 547 506 PPPP__________ WP101994 28.6298 137.337 85 2 28.9947 137.868 5 70 962 9 65 65 9 240 240 28.8871 137.932 4 68 970 28.8798 137.960 T 72 962 8 334
1994192N05139 1994 46 WP MM WALT 1994-07-21 18:00:00 TS 29.1500 137.525 70 965 tokyo main 495 473 OOOO__________ jtwc_wp WP101994 28.9000 137.100 80 1 29.3000 137.600 5 70 965 9 60 60 9 240 240 0 29.2000 137.700 4 68 970 29.2000 137.700 T 70 965 8 308
1994192N05139 1994 46 WP MM WALT 1994-07-21 21:00:00 TS 29.3137 137.090 main 473 452 PPPP__________ WP101994 29.0800 136.737 77 1 29.4341 137.161 5 67 967 9 55 55 9 230 230 29.3380 137.160 4 63 972 29.4025 137.303 T 70 965 9 286
1994192N05139 1994 46 WP MM WALT 1994-07-22 00:00:00 TS 29.4000 136.550 65 970 tokyo main 452 435 OOOO__________ jtwc_wp WP101994 29.2000 136.300 75 1 29.5000 136.600 5 65 970 9 50 50 9 220 220 0 29.4000 136.500 3 58 975 29.5000 136.800 T 70 965 10 280
1994192N05139 1994 46 WP MM WALT 1994-07-22 03:00:00 TS 29.4843 136.014 65 970 tokyo main 435 428 POPP__________ WP101994 29.3148 135.865 72 1 29.6000 136.000 5 65 970 9 50 50 9 220 220 0 29.5074 135.928 3 58 977 29.5149 136.265 T 67 967 9 279
1994192N05139 1994 46 WP MM WALT 1994-07-22 06:00:00 TS 29.5500 135.500 65 970 tokyo main 419 394 OOOO__________ jtwc_wp WP101994 29.4000 135.400 70 1 29.7000 135.500 5 65 970 9 50 50 9 220 220 0 29.6000 135.400 3 58 980 29.5000 135.700 T 65 970 9 277
1994192N05139 1994 46 WP MM WALT 1994-07-22 09:00:00 TS 29.5911 134.994 65 970 tokyo main 394 358 POPP__________ WP101994 29.4575 134.900 67 1 29.7000 135.000 5 65 970 9 50 50 9 220 220 0 29.6647 134.935 3 58 980 29.5424 135.143 T 65 970 9 275
1994192N05139 1994 46 WP MM WALT 1994-07-22 12:00:00 TS 29.6250 134.500 65 970 tokyo main 358 312 OOOO__________ jtwc_wp WP101994 29.5000 134.400 65 1 29.7000 134.500 5 65 970 9 50 50 9 200 200 0 29.7000 134.500 3 58 980 29.6000 134.600 T 65 970 9 274
1994192N05139 1994 46 WP MM WALT 1994-07-22 15:00:00 TS 29.6537 134.008 65 970 tokyo main 312 283 POPP__________ WP101994 29.5499 133.927 65 1 29.7000 134.000 5 65 970 9 50 50 9 200 200 0 29.7075 134.035 3 58 980 29.6574 134.070 T 62 972 8 274
1994192N05139 1994 46 WP MM WALT 1994-07-22 18:00:00 TS 29.6750 133.575 60 975 tokyo main 283 262 OOOO__________ jtwc_wp WP101994 29.6000 133.500 65 1 29.7000 133.600 4 60 975 9 40 40 9 180 180 0 29.7000 133.600 3 58 980 29.7000 133.600 STS 60 975 6 273
1994192N05139 1994 46 WP MM WALT 1994-07-22 21:00:00 TS 29.6837 133.309 60 975 tokyo main 262 237 POPP__________ WP101994 29.6424 133.112 65 1 29.7000 133.700 4 60 975 9 40 40 9 180 180 0 29.6924 133.212 3 58 980 29.6998 133.212 STS 60 975 6 272
1994192N05139 1994 46 WP MM WALT 1994-07-23 00:00:00 TS 29.7000 132.875 60 975 tokyo main 237 221 OOOO__________ jtwc_wp WP101994 29.7000 132.800 65 1 29.7000 132.900 4 60 975 9 40 40 9 180 180 0 29.7000 132.900 3 58 980 29.7000 132.900 STS 60 975 6 275
1994192N05139 1994 46 WP MM WALT 1994-07-23 03:00:00 TS 29.7387 132.631 60 975 tokyo main 221 207 POPP__________ WP101994 29.7924 132.555 62 0 29.7000 132.700 4 60 975 9 40 40 9 180 180 0 29.7349 132.663 3 58 980 29.7275 132.605 STS 57 977 4 289
1994192N05139 1994 46 WP MM WALT 1994-07-23 06:00:00 TS 29.8250 132.450 60 975 tokyo main 207 188 OOOO__________ jtwc_wp WP101994 29.9000 132.400 60 0 29.8000 132.500 4 60 975 9 40 40 9 180 180 0 29.8000 132.500 3 58 980 29.8000 132.400 STS 55 980 3 307
1994192N05139 1994 46 WP MM WALT 1994-07-23 09:00:00 TS 29.9262 132.345 60 975 tokyo main 188 178 POPP__________ WP101994 29.9924 132.312 60 0 29.9000 132.400 4 60 975 9 40 40 9 180 180 0 29.8850 132.363 3 53 982 29.9274 132.305 STS 55 980 3 330
1994192N05139 1994 46 WP MM WALT 1994-07-23 12:00:00 TS 30.0500 132.300 55 980 tokyo main 168 159 OOOO__________ jtwc_wp WP101994 30.1000 132.300 60 0 30.0000 132.300 4 55 980 9 40 40 9 180 180 0 30.0000 132.300 3 48 985 30.1000 132.300 STS 55 980 3 357
1994192N05139 1994 46 WP MM WALT 1994-07-23 15:00:00 TS 30.2000 132.321 55 980 tokyo main 159 146 POPP__________ WP101994 30.2425 132.335 60 0 30.1000 132.300 4 55 980 9 40 40 9 180 180 0 30.1500 132.320 3 48 985 30.3075 132.327 STS 55 980 3 15
1994192N05139 1994 46 WP MM WALT 1994-07-23 18:00:00 TS 30.3750 132.400 55 980 tokyo main 146 138 OOOO__________ jtwc_wp WP101994 30.4000 132.400 60 0 30.3000 132.400 4 55 980 9 40 40 9 180 180 0 30.3000 132.400 3 48 985 30.5000 132.400 STS 55 980 3 24
1994192N05139 1994 46 WP MM WALT 1994-07-23 21:00:00 TS 30.5144 132.484 55 980 tokyo main 145 137 POPP__________ WP101994 30.5500 132.443 60 0 30.5000 132.500 4 55 980 9 40 40 9 180 180 0 30.3925 132.500 3 48 985 30.6150 132.493 STS 55 980 3 32
1994192N05139 1994 46 WP MM WALT 1994-07-24 00:00:00 TS 30.6250 132.575 55 980 tokyo main 144 132 OOOO__________ jtwc_wp WP101994 30.7000 132.500 60 0 30.6000 132.600 4 55 980 9 40 40 9 180 180 0 30.5000 132.600 3 48 985 30.7000 132.600 STS 55 980 3 28
1994192N05139 1994 46 WP MM WALT 1994-07-24 03:00:00 TS 30.7606 132.638 55 980 tokyo main 132 132 POPP__________ WP101994 30.8500 132.592 57 0 30.7000 132.600 4 55 980 9 40 40 9 180 180 0 30.7000 132.658 3 48 985 30.7925 132.700 STS 55 980 3 23
1994192N05139 1994 46 WP MM WALT 1994-07-24 06:00:00 TS 30.9250 132.725 55 980 tokyo main 135 131 OOOO__________ jtwc_wp WP101994 31.0000 132.700 55 0 30.9000 132.700 4 55 980 9 40 40 9 180 180 0 30.9000 132.700 3 48 985 30.9000 132.800 STS 55 980 3 27
1994192N05139 1994 46 WP MM WALT 1994-07-24 09:00:00 TS 31.0444 132.809 55 980 tokyo main 140 137 POPP__________ WP101994 31.1425 132.800 55 0 31.0000 132.800 4 55 980 9 40 40 9 180 180 0 31.0000 132.735 3 48 985 31.0350 132.900 STS 55 980 3 28
1994192N05139 1994 46 WP MM WALT 1994-07-24 12:00:00 TS 31.1750 132.875 55 980 tokyo main 144 142 OOOO__________ jtwc_wp WP101994 31.3000 132.900 55 0 31.1000 132.800 4 55 980 9 40 40 9 180 180 0 31.1000 132.800 3 48 985 31.2000 133.000 STS 55 980 4 28
1994192N05139 1994 46 WP MM WALT 1994-07-24 15:00:00 TS 31.3582 132.997 55 980 tokyo main 144 123 POPP__________ WP101994 31.4850 133.015 55 0 31.3000 132.900 4 55 980 9 40 40 9 180 180 0 31.2626 132.957 3 48 985 31.3850 133.115 STS 55 980 4 26
1994192N05139 1994 46 WP MM WALT 1994-07-24 18:00:00 TS 31.5750 133.100 55 980 tokyo main 123 102 OOOO__________ jtwc_wp WP101994 31.7000 133.100 55 0 31.5000 133.000 4 55 980 9 40 40 9 180 180 0 31.5000 133.100 3 48 985 31.6000 133.200 STS 55 980 5 16
1994192N05139 1994 46 WP MM WALT 1994-07-24 21:00:00 TS 31.8399 133.162 55 980 tokyo main 102 67 POPP__________ WP101994 31.9349 133.152 55 0 31.8000 133.100 4 55 980 9 40 40 9 150 150 0 31.8199 133.152 3 48 985 31.8049 133.245 STS 55 980 6 0
1994192N05139 1994 46 WP MM WALT 1994-07-25 00:00:00 TS 32.1500 133.125 55 980 tokyo main 56 22 OOOO__________ jtwc_wp WP101994 32.2000 133.100 55 0 32.1000 133.100 4 55 980 9 40 40 4 150 120 0 32.2000 133.100 3 48 985 32.1000 133.200 STS 55 980 7 348
1994192N05139 1994 46 WP MM WALT 1994-07-25 03:00:00 TS 32.5174 132.986 50 985 tokyo main 22 9 POPP__________ WP101994 32.4924 132.910 52 0 32.4000 133.000 4 50 985 9 9 120 120 0 32.5997 132.975 3 43 987 32.5774 133.060 STS 52 982 8 338
1994192N05139 1994 46 WP MM WALT 1994-07-25 04:00:00 TS 32.6713 132.877 50 985 tokyo main 9 0 POPP__________ WP101994 32.5945 132.817 51 0 32.6000 132.800 4 50 985 9 9 120 120 1 32.7355 132.902 3 41 988 32.7552 132.987 STS 51 983 10 332
1994192N05139 1994 46 WP MM WALT 1994-07-25 06:00:00 TS 32.9750 132.700 45 985 tokyo main 0 0 OOOO__________ jtwc_wp WP101994 32.8000 132.600 50 0 33.0000 132.700 3 45 985 0 4 110 90 0 33.0000 132.700 2 38 990 33.1000 132.800 STS 50 985 10 325
1994192N05139 1994 46 WP MM WALT 1994-07-25 09:00:00 TS 33.3691 132.299 45 990 tokyo main 9 0 POPP__________ WP101994 33.1225 132.230 45 0 33.4000 132.200 3 45 990 0 9 100 100 0 33.3874 132.268 2 38 992 33.5667 132.498 STS 47 987 10 313
1994192N05139 1994 46 WP MM WALT 1994-07-25 12:00:00 TS 33.6750 131.800 40 992 tokyo main 14 9 OOOO__________ jtwc_wp WP101994 33.4000 131.800 40 0 33.7000 131.700 3 40 992 0 9 80 80 0 33.7000 131.700 2 38 995 33.9000 132.000 TS 45 990 11 296
1994192N05139 1994 46 WP MM WALT 1994-07-25 15:00:00 TS 33.8489 131.092 35 994 tokyo main 9 0 POPP__________ WP101994 33.5800 131.350 37 0 33.9000 130.900 3 35 994 0 9 80 80 0 33.9033 131.005 2 38 995 34.0121 131.112 TS 42 991 11 283
1994192N05139 1994 46 WP MM WALT 1994-07-25 18:00:00 TS 33.9250 130.500 35 994 tokyo main 11 11 OOOO__________ jtwc_wp WP101994 33.7000 130.900 35 0 34.0000 130.400 3 35 994 0 9 80 80 0 34.0000 130.400 2 38 995 34.0000 130.300 TS 40 992 7 279
1994192N05139 1994 46 WP MM WALT 1994-07-25 21:00:00 TS 33.9608 130.206 996 tokyo main 35 35 POPP__________ WP101994 33.8149 130.485 35 0 34.0000 130.200 2 996 0 0 0 34.0219 130.102 2 33 996 34.0065 130.037 TS 37 993 4 277
1994192N05139 1994 46 WP MM WALT 1994-07-26 00:00:00 TS 33.9750 130.025 998 tokyo main 45 45 OOOO__________ jtwc_wp WP101994 33.9000 130.100 35 0 34.0000 130.000 2 998 0 0 0 34.0000 130.000 1 29 997 34.0000 130.000 TS 35 994 3 277
1994192N05139 1994 46 WP MM WALT 1994-07-26 03:00:00 TS 33.9912 129.889 main 48 48 PPPP__________ WP101994 33.9649 129.735 32 -1 34.0000 129.959 2 998 0 0 33.9999 129.970 1 29 997 34.0000 129.893 TS 32 995 2 278
1994192N05139 1994 46 WP MM WALT 1994-07-26 06:00:00 TS 34.0000 129.800 998 tokyo main 52 52 OOOO__________ jtwc_wp WP101994 34.0000 129.400 30 -1 34.0000 130.000 2 998 0 0 0 34.0000 130.000 1 29 998 34.0000 129.800 TD 30 996 2 273
1994192N05139 1994 46 WP MM WALT 1994-07-26 09:00:00 TS 34.0000 129.698 main 57 57 PPPP__________ WP101994 33.9999 129.092 27 -1 34.0000 130.000 2 998 0 0 34.0000 130.000 1 29 998 34.0000 129.700 TD 27 997 2 270
1994192N05139 1994 46 WP MM WALT 1994-07-26 12:00:00 TS 34.0000 129.600 998 tokyo main 62 62 OOOO__________ jtwc_wp WP101994 34.0000 128.800 25 -1 34.0000 130.000 2 998 0 0 0 34.0000 130.000 1 29 998 34.0000 129.600 TD 25 998 1 277
1994192N05139 1994 46 WP MM WALT 1994-07-26 15:00:00 TS 34.0161 129.539 main 66 66 PPPP__________ WP101994 34.0500 128.493 25 -1 34.0072 130.075 2 998 0 0 34.0072 130.075 1 26 998 33.9999 129.515 TD 25 998 2 279
1994192N05139 1994 46 WP MM WALT 1994-07-26 18:00:00 TS 34.0267 129.400 998 tokyo main 72 72 OOOO__________ jtwc_wp WP101994 34.1000 128.200 25 -1 34.0000 130.000 2 998 0 0 0 34.0000 130.000 1 23 998 34.0000 129.400 TD 25 998 4 269
1994192N05139 1994 46 WP MM WALT 1994-07-26 21:00:00 TS 34.0088 129.056 main 90 90 PPPP__________ WP101994 34.1149 127.935 25 -1 33.9579 129.575 2 999 0 0 33.9579 129.575 1 23 999 34.0001 129.220 TD 25 998 7 265
1994192N05139 1994 46 WP MM WALT 1994-07-27 00:00:00 TS 33.9692 128.600 1000 tokyo main 91 86 OOOO__________ jtwc_wp WP101994 34.1000 127.700 25 -1 33.9000 129.000 2 1000 0 0 0 33.9000 129.000 1 23 1000 34.0000 129.000 TD 25 998 8 263
1994192N05139 1994 46 WP MM WALT 1994-07-27 03:00:00 TS 33.9193 128.134 main 82 72 PPP___________ WP101994 34.0575 127.477 22 -1 33.8502 128.463 2 1000 0 0 33.8502 128.463 1 23 1000 TD 7 262
1994192N05139 1994 46 WP MM WALT 1994-07-27 06:00:00 TS 33.8667 127.767 1000 tokyo main 72 64 OOO___________ jtwc_wp WP101994 34.0000 127.300 20 -1 33.8000 128.000 2 1000 0 0 0 33.8000 128.000 1 23 1000 5 259
1994192N05139 1994 46 WP MM WALT 1994-07-27 09:00:00 TS 33.8189 127.534 main 64 57 PPP___________ WP101994 33.9500 127.178 20 -1 33.7496 127.713 2 1000 0 0 33.7571 127.713 1 20 1000 3 253
1994192N05139 1994 46 WP MM WALT 1994-07-27 12:00:00 TS 33.7667 127.367 1000 tokyo main 57 35 OOO___________ jtwc_wp WP101994 33.9000 127.100 20 -1 33.7000 127.500 2 1000 0 0 0 33.7000 127.500 0 17 1000 3 249
1994192N05139 1994 46 WP MM WALT 1994-07-27 15:00:00 TS 33.6976 127.146 main 28 14 PPP___________ WP101994 33.8500 127.012 20 -1 33.6501 127.212 2 1000 0 0 33.5926 127.212 0 17 1000 3 246
1994192N05139 1994 46 WP MM WALT 1994-07-27 18:00:00 TS 33.6333 127.000 1000 tokyo main 14 14 OOO___________ jtwc_wp WP101994 33.8000 127.000 20 -1 33.6000 127.000 2 1000 0 0 0 33.5000 127.000 0 17 1000 2 226
1994192N05139 1994 46 WP MM WALT 1994-07-27 21:00:00 TS 33.5874 127.010 main 14 14 PPP___________ WP101994 33.7350 127.105 17 -1 33.5424 126.963 2 1000 0 0 33.4849 126.963 0 17 1000 1 134
1994192N05139 1994 46 WP MM WALT 1994-07-28 00:00:00 TS 33.5600 127.090 1000 tokyo main 21 21 OOO___________ jtwc_wp WP101994 33.7000 127.300 15 -1 33.5000 127.000 2 1000 0 0 0 33.5000 127.000 0 17 1000 1 107
1994192N05139 1994 46 WP MM WALT 1994-07-28 03:00:00 TS 33.5550 127.138 main 21 21 PPP___________ WP101994 33.7301 127.540 15 -1 33.4925 127.000 2 1000 0 0 33.5050 127.012 0 17 1000 1 90
1994192N05139 1994 46 WP MM WALT 1994-07-28 06:00:00 TS 33.5600 127.160 1000 tokyo main 29 9 OOO___________ jtwc_wp WP101994 33.8000 127.800 15 -1 33.5000 127.000 2 1000 0 0 0 33.5000 127.000 0 17 1000 1 245
1994192N05139 1994 46 WP MM WALT 1994-07-28 09:00:00 TS 33.5025 127.000 main 9 9 _P____________ WP101994 -1 33.5025 127.000 2 1000 0 0 0 1 245
1994192N05139 1994 46 WP MM WALT 1994-07-28 12:00:00 TS 33.5000 127.000 1000 tokyo main 9 _O____________ -1 33.5000 127.000 2 1000 0 0 0 0 0

Digital Typhoon Data and Search

About IBTrACS Database

This database is a web-friendly format of International Best Track Archive for Climate Stewardship (IBTrACS), a global best track data archive curated by NOAA dating back to 1842.

Updated: 2021-10-21